createdAt,value
2023-01-26T00:00:48.442Z,42.80
2023-01-26T00:06:03.751Z,42.70
2023-01-26T00:11:18.454Z,42.30
2023-01-26T00:16:34.045Z,42.10
2023-01-26T00:21:49.754Z,42.00
2023-01-26T00:27:04.791Z,42.00
2023-01-26T00:32:20.051Z,41.90
2023-01-26T00:37:36.020Z,42.10
2023-01-26T00:42:51.741Z,42.00
2023-01-26T00:48:06.741Z,42.10
2023-01-26T00:53:21.743Z,42.30
2023-01-26T00:58:36.730Z,42.70
2023-01-26T01:03:53.968Z,42.50
2023-01-26T01:09:09.809Z,42.40
2023-01-26T01:14:24.736Z,42.40
2023-01-26T01:19:40.707Z,42.30
2023-01-26T01:24:55.745Z,42.30
2023-01-26T01:30:11.096Z,42.10
2023-01-26T01:35:26.708Z,42.00
2023-01-26T01:40:41.759Z,42.00
2023-01-26T01:45:56.794Z,41.80
2023-01-26T01:51:11.766Z,42.10
2023-01-26T01:56:26.758Z,42.40
2023-01-26T02:01:41.742Z,43.10
2023-01-26T02:06:56.745Z,43.00
2023-01-26T02:12:11.772Z,42.70
2023-01-26T02:17:26.705Z,43.00
2023-01-26T02:22:42.049Z,43.00
2023-01-26T02:27:59.511Z,42.90
2023-01-26T02:33:15.791Z,42.60
2023-01-26T02:38:30.687Z,42.50
2023-01-26T02:43:45.705Z,42.40
2023-01-26T02:49:00.517Z,43.20
2023-01-26T02:54:15.725Z,42.90
2023-01-26T02:59:30.703Z,42.60
2023-01-26T03:04:46.092Z,42.50
2023-01-26T03:10:01.691Z,42.40
2023-01-26T03:15:16.475Z,42.20
2023-01-26T03:20:31.754Z,42.10
2023-01-26T03:25:47.023Z,42.10
2023-01-26T03:31:03.705Z,42.20
2023-01-26T03:36:19.058Z,42.00
2023-01-26T03:41:34.741Z,41.90
2023-01-26T03:46:49.739Z,41.80
2023-01-26T03:52:04.488Z,42.00
2023-01-26T03:57:20.130Z,42.50
2023-01-26T04:02:35.748Z,42.60
2023-01-26T04:07:53.001Z,42.20
2023-01-26T04:13:09.013Z,42.20
2023-01-26T04:18:30.985Z,42.10
2023-01-26T04:23:46.769Z,42.40
2023-01-26T04:29:02.711Z,42.60
2023-01-26T04:34:18.070Z,42.70
2023-01-26T04:39:33.489Z,43.90
2023-01-26T04:44:48.750Z,43.70
2023-01-26T04:50:04.698Z,43.50
2023-01-26T04:55:19.816Z,43.50
2023-01-26T05:00:35.176Z,43.50
2023-01-26T05:05:51.782Z,43.60
2023-01-26T05:11:06.821Z,43.50
2023-01-26T05:16:28.128Z,43.40
2023-01-26T05:22:02.778Z,43.30
2023-01-26T05:27:19.999Z,43.30
2023-01-26T05:32:40.737Z,43.30
2023-01-26T05:37:56.744Z,43.30
2023-01-26T05:43:13.510Z,43.30
2023-01-26T05:48:57.750Z,43.30
2023-01-26T05:54:13.048Z,43.40
2023-01-26T05:59:28.821Z,43.40
2023-01-26T06:04:44.908Z,43.40
2023-01-26T06:10:00.761Z,43.30
2023-01-26T06:15:34.072Z,43.30
2023-01-26T06:20:50.753Z,43.40
2023-01-26T06:26:06.034Z,43.30
2023-01-26T06:31:21.907Z,43.40
2023-01-26T06:36:38.748Z,43.60
2023-01-26T06:42:00.801Z,43.30
2023-01-26T06:47:15.522Z,43.30
2023-01-26T06:52:31.724Z,43.20
2023-01-26T06:57:54.071Z,43.20
2023-01-26T07:03:16.021Z,43.20
2023-01-26T07:08:31.762Z,43.10
2023-01-26T07:13:46.519Z,43.20
2023-01-26T07:19:01.617Z,43.10
2023-01-26T07:24:16.808Z,42.90
2023-01-26T07:29:31.748Z,42.80
2023-01-26T07:34:47.061Z,42.80
2023-01-26T07:40:02.480Z,42.60
2023-01-26T07:45:17.743Z,42.60
2023-01-26T07:50:32.821Z,42.60
2023-01-26T07:55:47.785Z,42.50
2023-01-26T08:01:02.749Z,42.50
2023-01-26T08:06:17.820Z,42.50
2023-01-26T08:11:33.759Z,42.40
2023-01-26T08:16:48.820Z,42.30
2023-01-26T08:22:03.802Z,42.30
2023-01-26T08:27:18.783Z,42.20
2023-01-26T08:32:33.767Z,42.20
2023-01-26T08:37:48.774Z,42.10
2023-01-26T08:43:03.758Z,42.10
2023-01-26T08:48:19.058Z,42.10
2023-01-26T08:53:34.745Z,42.10
2023-01-26T08:58:50.082Z,42.10
2023-01-26T09:04:05.762Z,42.10
2023-01-26T09:09:21.091Z,42.10
2023-01-26T09:14:37.072Z,42.00
2023-01-26T09:19:52.754Z,41.90
2023-01-26T09:25:07.726Z,41.90
2023-01-26T09:30:22.751Z,41.80
2023-01-26T09:35:37.730Z,41.80
2023-01-26T09:40:52.779Z,41.90
2023-01-26T09:46:07.592Z,41.90
2023-01-26T09:51:22.708Z,42.00
2023-01-26T09:56:38.098Z,42.00
2023-01-26T10:01:53.787Z,42.00
2023-01-26T10:07:08.735Z,41.90
2023-01-26T10:12:26.753Z,41.90
2023-01-26T10:17:41.733Z,41.80
2023-01-26T10:22:56.759Z,41.80
2023-01-26T10:28:11.772Z,41.70
2023-01-26T10:33:26.781Z,41.60
2023-01-26T10:38:41.791Z,41.60
2023-01-26T10:43:56.841Z,41.60
2023-01-26T10:49:11.955Z,41.50
2023-01-26T10:54:27.886Z,41.50
2023-01-26T10:59:42.769Z,41.50
2023-01-26T11:04:58.212Z,41.50
2023-01-26T11:10:13.803Z,41.50
2023-01-26T11:15:28.760Z,41.50
2023-01-26T11:20:43.926Z,41.50
2023-01-26T11:25:59.897Z,41.60
2023-01-26T11:31:15.267Z,41.70
2023-01-26T11:36:30.807Z,41.80
2023-01-26T11:41:45.807Z,41.90
2023-01-26T11:47:00.782Z,42.00
2023-01-26T11:52:15.817Z,42.10
2023-01-26T11:57:30.803Z,42.30
2023-01-26T12:02:45.914Z,42.30
2023-01-26T12:08:01.863Z,42.40
2023-01-26T12:13:17.100Z,42.40
2023-01-26T12:18:48.880Z,42.50
2023-01-26T12:24:12.846Z,42.60
2023-01-26T12:29:35.096Z,42.60
2023-01-26T12:34:50.905Z,42.60
2023-01-26T12:40:06.806Z,46.60
2023-01-26T12:45:21.741Z,48.10
2023-01-26T12:50:37.069Z,47.90
2023-01-26T12:55:52.609Z,48.70
2023-01-26T13:01:07.881Z,48.50
2023-01-26T13:06:22.768Z,48.70
2023-01-26T13:11:37.807Z,48.60
2023-01-26T13:16:52.802Z,47.60
2023-01-26T13:22:07.788Z,46.70
2023-01-26T13:27:22.814Z,45.90
2023-01-26T13:32:38.146Z,45.20
2023-01-26T13:37:54.260Z,44.60
2023-01-26T13:43:25.294Z,44.30
2023-01-26T13:48:41.789Z,45.80
2023-01-26T13:53:56.834Z,45.50
2023-01-26T13:59:12.098Z,44.70
2023-01-26T14:04:27.504Z,44.20
2023-01-26T14:10:20.919Z,44.00
2023-01-26T14:15:36.733Z,43.60
2023-01-26T14:20:51.777Z,43.40
2023-01-26T14:26:06.816Z,43.40
2023-01-26T14:31:21.808Z,43.60
2023-01-26T14:36:36.819Z,43.80
2023-01-26T14:41:51.821Z,43.40
2023-01-26T14:47:06.829Z,43.50
2023-01-26T14:52:22.126Z,43.40
2023-01-26T14:57:37.715Z,43.40
2023-01-26T15:02:52.820Z,43.40
2023-01-26T15:08:07.754Z,43.40
2023-01-26T15:13:23.127Z,43.40
2023-01-26T15:18:38.808Z,43.40
2023-01-26T15:23:53.818Z,43.50
2023-01-26T15:29:08.771Z,43.50
2023-01-26T15:34:23.787Z,43.50
2023-01-26T15:39:38.558Z,43.60
2023-01-26T15:44:53.774Z,43.60
2023-01-26T15:50:13.515Z,43.70
2023-01-26T15:55:37.792Z,43.70
2023-01-26T16:00:52.672Z,44.00
2023-01-26T16:06:07.765Z,44.20
2023-01-26T16:11:22.589Z,44.30
2023-01-26T16:16:37.554Z,44.10
2023-01-26T16:21:52.834Z,44.00
2023-01-26T16:27:07.800Z,43.90
2023-01-26T16:32:22.813Z,43.70
2023-01-26T16:37:37.791Z,44.00
2023-01-26T16:42:52.780Z,44.10
2023-01-26T16:48:08.824Z,44.00
2023-01-26T16:53:23.821Z,43.90
2023-01-26T16:58:38.534Z,43.90
2023-01-26T17:03:53.792Z,43.80
2023-01-26T17:09:08.837Z,43.70
2023-01-26T17:14:23.942Z,43.70
2023-01-26T17:19:38.798Z,43.90
2023-01-26T17:24:53.849Z,43.90
2023-01-26T17:30:08.818Z,44.00
2023-01-26T17:35:23.767Z,44.20
2023-01-26T17:40:38.753Z,44.30
2023-01-26T17:45:53.974Z,44.50
2023-01-26T17:51:08.843Z,44.50
2023-01-26T17:56:23.584Z,44.60
2023-01-26T18:01:38.856Z,44.50
2023-01-26T18:06:54.046Z,44.50
2023-01-26T18:12:09.554Z,44.50
2023-01-26T18:17:24.842Z,44.60
2023-01-26T18:22:39.790Z,44.70
2023-01-26T18:27:54.867Z,44.60
2023-01-26T18:33:09.795Z,44.60
2023-01-26T18:38:25.763Z,44.70
2023-01-26T18:43:41.100Z,44.70
2023-01-26T18:48:57.183Z,44.60
2023-01-26T18:54:13.068Z,44.80
2023-01-26T18:59:28.788Z,44.60
2023-01-26T19:04:44.083Z,44.50
2023-01-26T19:09:59.796Z,44.50
2023-01-26T19:15:14.841Z,44.40
2023-01-26T19:20:29.852Z,44.20
2023-01-26T19:25:44.840Z,44.10
2023-01-26T19:30:59.629Z,44.00
2023-01-26T19:36:15.164Z,43.80
2023-01-26T19:41:30.783Z,43.70
2023-01-26T19:46:45.805Z,43.60
2023-01-26T19:52:00.823Z,43.50
2023-01-26T19:57:17.114Z,43.50
2023-01-26T20:02:33.418Z,43.40
2023-01-26T20:07:48.813Z,43.60
2023-01-26T20:13:03.859Z,43.40
2023-01-26T20:18:18.924Z,43.90
2023-01-26T20:23:33.858Z,48.00
2023-01-26T20:28:48.844Z,50.20
2023-01-26T20:34:03.796Z,49.70
2023-01-26T20:39:18.816Z,49.70
2023-01-26T20:44:33.826Z,49.70
2023-01-26T20:49:48.808Z,49.70
2023-01-26T20:55:04.171Z,49.20
2023-01-26T21:00:19.856Z,48.50
2023-01-26T21:05:35.125Z,48.90
2023-01-26T21:10:50.848Z,48.80
2023-01-26T21:16:05.845Z,48.80
2023-01-26T21:21:20.840Z,48.90
2023-01-26T21:26:35.785Z,48.80
2023-01-26T21:31:50.584Z,48.70
2023-01-26T21:37:05.827Z,48.50
2023-01-26T21:42:20.922Z,48.30
2023-01-26T21:47:35.771Z,48.00
2023-01-26T21:52:50.820Z,48.10
2023-01-26T21:58:05.844Z,48.10
2023-01-26T22:03:20.867Z,48.20
2023-01-26T22:08:36.139Z,47.70
2023-01-26T22:13:51.810Z,47.70
2023-01-26T22:19:06.816Z,47.70
2023-01-26T22:24:21.945Z,47.50
2023-01-26T22:29:36.820Z,47.40
2023-01-26T22:34:51.808Z,47.30
2023-01-26T22:40:06.836Z,47.30
2023-01-26T22:45:21.784Z,47.10
2023-01-26T22:50:36.793Z,47.20
2023-01-26T22:55:51.794Z,47.20
2023-01-26T23:01:07.193Z,47.60
2023-01-26T23:06:22.797Z,47.30
2023-01-26T23:11:38.820Z,47.10
2023-01-26T23:16:54.069Z,47.30
2023-01-26T23:22:09.800Z,47.00
2023-01-26T23:27:24.631Z,47.10
2023-01-26T23:32:39.672Z,47.00
2023-01-26T23:37:54.769Z,46.60
2023-01-26T23:43:16.767Z,47.20
2023-01-26T23:48:32.853Z,47.40
2023-01-26T23:53:47.888Z,47.60
2023-01-26T23:59:02.819Z,47.60
